createdAt,value
2017-05-10T00:02:15.165Z,2.82
2017-05-10T00:04:44.121Z,2.42
2017-05-10T00:07:13.052Z,3.26
2017-05-10T00:09:42.318Z,3.00
2017-05-10T00:12:12.031Z,2.92
2017-05-10T00:14:41.750Z,2.74
2017-05-10T00:17:11.015Z,3.20
2017-05-10T00:19:39.952Z,2.86
2017-05-10T00:22:08.907Z,3.04
2017-05-10T00:24:38.946Z,2.58
2017-05-10T00:27:07.887Z,4.06
2017-05-10T00:29:36.840Z,3.74
2017-05-10T00:32:06.099Z,3.16
2017-05-10T00:34:35.091Z,3.62
2017-05-10T00:37:04.764Z,3.12
2017-05-10T00:39:33.997Z,3.28
2017-05-10T00:42:03.727Z,3.32
2017-05-10T00:44:32.674Z,2.30
2017-05-10T00:47:01.907Z,2.46
2017-05-10T00:49:30.841Z,3.42
2017-05-10T00:51:59.792Z,3.48
2017-05-10T00:54:29.174Z,3.58
2017-05-10T00:56:58.103Z,2.92
2017-05-10T00:59:27.059Z,2.48
2017-05-10T01:01:56.383Z,2.98
2017-05-10T01:04:25.316Z,3.78
2017-05-10T01:06:54.274Z,2.60
2017-05-10T01:09:23.637Z,1.92
2017-05-10T01:11:52.607Z,3.38
2017-05-10T01:14:21.563Z,2.38
2017-05-10T01:16:50.935Z,3.50
2017-05-10T01:19:20.622Z,3.10
2017-05-10T01:21:49.574Z,2.82
2017-05-10T01:24:18.931Z,2.54
2017-05-10T01:26:48.624Z,3.76
2017-05-10T01:29:17.556Z,3.30
2017-05-10T01:31:46.795Z,3.32
2017-05-10T01:34:15.731Z,3.40
2017-05-10T01:36:45.425Z,2.90
2017-05-10T01:39:15.052Z,3.96
2017-05-10T01:41:43.982Z,3.48
2017-05-10T01:44:12.916Z,3.58
2017-05-10T01:46:42.919Z,2.50
2017-05-10T01:49:11.845Z,3.96
2017-05-10T01:51:40.885Z,3.10
2017-05-10T01:54:10.124Z,3.48
2017-05-10T01:56:39.803Z,3.12
2017-05-10T01:59:08.762Z,3.10
2017-05-10T02:01:38.042Z,3.96
2017-05-10T02:04:07.027Z,3.80
2017-05-10T02:06:35.967Z,4.22
2017-05-10T02:09:05.207Z,3.88
2017-05-10T02:11:34.911Z,4.34
2017-05-10T02:14:03.860Z,4.26
2017-05-10T02:16:33.204Z,3.48
2017-05-10T02:19:02.897Z,4.06
2017-05-10T02:21:32.909Z,4.42
2017-05-10T02:24:01.851Z,3.72
2017-05-10T02:26:30.790Z,4.22
2017-05-10T02:29:00.106Z,4.40
2017-05-10T02:31:29.821Z,3.78
2017-05-10T02:33:58.750Z,4.12
2017-05-10T02:36:28.075Z,3.78
2017-05-10T02:38:57.071Z,4.60
2017-05-10T02:41:26.775Z,4.66
2017-05-10T02:43:56.132Z,4.66
2017-05-10T02:46:25.066Z,3.96
2017-05-10T02:48:54.026Z,3.64
2017-05-10T02:51:23.311Z,5.12
2017-05-10T02:53:52.270Z,3.86
2017-05-10T02:56:21.969Z,4.76
2017-05-10T02:58:51.267Z,4.64
2017-05-10T03:01:20.200Z,5.10
2017-05-10T03:03:49.159Z,5.12
2017-05-10T03:06:19.125Z,4.62
2017-05-10T03:08:48.099Z,4.54
2017-05-10T03:11:17.027Z,4.02
2017-05-10T03:13:46.353Z,4.62
2017-05-10T03:16:16.047Z,6.64
2017-05-10T03:18:44.989Z,5.08
2017-05-10T03:21:14.231Z,4.10
2017-05-10T03:23:43.177Z,4.30
2017-05-10T03:26:12.109Z,4.02
2017-05-10T03:28:41.417Z,4.98
2017-05-10T03:31:10.364Z,4.58
2017-05-10T03:33:39.296Z,5.26
2017-05-10T03:36:08.603Z,4.46
2017-05-10T03:38:37.568Z,2.88
2017-05-10T03:41:06.534Z,3.62
2017-05-10T03:43:35.896Z,3.96
2017-05-10T03:46:05.590Z,4.10
2017-05-10T03:48:34.529Z,4.38
2017-05-10T03:51:03.790Z,4.30
2017-05-10T03:53:33.508Z,4.66
2017-05-10T03:56:03.502Z,3.92
2017-05-10T03:58:32.438Z,4.10
2017-05-10T04:01:01.379Z,3.90
2017-05-10T04:03:30.711Z,5.36
2017-05-10T04:06:00.386Z,4.00
2017-05-10T04:08:29.320Z,3.94
2017-05-10T04:10:58.549Z,4.26
2017-05-10T04:13:27.493Z,3.46
2017-05-10T04:15:57.178Z,3.82
2017-05-10T04:18:26.430Z,3.50
2017-05-10T04:20:55.384Z,4.52
2017-05-10T04:23:25.081Z,4.52
2017-05-10T04:25:54.576Z,4.68
2017-05-10T04:28:23.548Z,4.00
2017-05-10T04:30:52.491Z,4.56
2017-05-10T04:33:22.591Z,4.48
2017-05-10T04:35:51.523Z,3.72
2017-05-10T04:38:20.495Z,4.08
2017-05-10T04:40:50.590Z,3.90
2017-05-10T04:43:20.373Z,3.80
2017-05-10T04:45:49.333Z,4.00
2017-05-10T04:48:18.707Z,4.54
2017-05-10T04:50:48.733Z,4.38
2017-05-10T04:53:18.719Z,3.92
2017-05-10T04:55:47.673Z,5.42
2017-05-10T04:58:16.634Z,2.94
2017-05-10T05:00:45.931Z,4.54
2017-05-10T05:03:14.887Z,5.28
2017-05-10T05:05:43.824Z,3.98
2017-05-10T05:08:13.119Z,5.60
2017-05-10T05:10:42.070Z,4.38
2017-05-10T05:13:11.009Z,5.30
2017-05-10T05:15:40.363Z,4.08
2017-05-10T05:18:09.313Z,4.68
2017-05-10T05:20:38.265Z,3.68
2017-05-10T05:23:08.389Z,4.48
2017-05-10T05:25:38.067Z,3.60
2017-05-10T05:28:07.041Z,3.74
2017-05-10T05:30:36.362Z,4.92
2017-05-10T05:33:05.375Z,4.18
2017-05-10T05:35:35.051Z,3.90
2017-05-10T05:38:04.367Z,3.72
2017-05-10T05:40:34.084Z,3.80
2017-05-10T05:43:03.050Z,3.46
2017-05-10T05:45:32.376Z,3.70
2017-05-10T05:48:01.301Z,3.74
2017-05-10T05:50:30.291Z,3.94
2017-05-10T05:52:59.624Z,4.00
2017-05-10T05:55:28.600Z,3.04
2017-05-10T05:57:57.595Z,3.22
2017-05-10T06:00:27.166Z,3.02
2017-05-10T06:02:56.119Z,3.22
2017-05-10T06:05:25.076Z,3.54
2017-05-10T06:07:54.497Z,3.08
2017-05-10T06:10:23.492Z,3.34
2017-05-10T06:12:52.460Z,3.36
2017-05-10T06:15:21.815Z,3.56
2017-05-10T06:17:51.495Z,3.48
2017-05-10T06:20:20.464Z,3.10
2017-05-10T06:22:49.694Z,3.26
2017-05-10T06:25:18.631Z,4.54
2017-05-10T06:27:47.572Z,4.00
2017-05-10T06:30:16.989Z,3.48
2017-05-10T06:32:45.941Z,4.88
2017-05-10T06:35:14.910Z,3.28
2017-05-10T06:37:44.263Z,3.08
2017-05-10T06:40:13.255Z,4.44
2017-05-10T06:42:42.235Z,3.14
2017-05-10T06:45:11.563Z,3.86
2017-05-10T06:47:41.310Z,4.28
2017-05-10T06:50:10.283Z,4.94
2017-05-10T06:52:39.578Z,5.26
2017-05-10T06:55:09.275Z,4.02
2017-05-10T06:57:39.004Z,4.08
2017-05-10T07:00:08.306Z,2.80
2017-05-10T07:02:37.270Z,2.94
2017-05-10T07:05:06.974Z,2.30
2017-05-10T07:07:37.072Z,1.98
2017-05-10T07:10:06.043Z,2.44
2017-05-10T07:12:34.999Z,3.38
2017-05-10T07:15:04.254Z,2.36
2017-05-10T07:17:33.444Z,2.44
2017-05-10T07:20:02.374Z,1.52
2017-05-10T07:22:32.414Z,1.24
2017-05-10T07:25:01.372Z,1.68
2017-05-10T07:27:31.090Z,1.42
2017-05-10T07:30:01.274Z,1.40
2017-05-10T07:32:30.233Z,1.58
2017-05-10T07:34:59.265Z,1.00
2017-05-10T07:37:28.531Z,1.32
2017-05-10T07:39:57.499Z,1.18
2017-05-10T07:42:26.460Z,0.82
2017-05-10T07:44:55.835Z,1.38
2017-05-10T07:47:24.819Z,1.08
2017-05-10T07:49:53.796Z,1.22
2017-05-10T07:52:23.272Z,1.08
2017-05-10T07:54:52.993Z,1.20
2017-05-10T07:57:21.976Z,0.94
2017-05-10T07:59:51.447Z,1.20
2017-05-10T08:02:20.427Z,1.02
2017-05-10T08:04:49.421Z,1.26
2017-05-10T08:07:18.703Z,1.28
2017-05-10T08:09:47.650Z,0.70
2017-05-10T08:12:17.390Z,1.20
2017-05-10T08:14:46.744Z,1.60
2017-05-10T08:17:16.454Z,2.12
2017-05-10T08:19:46.457Z,2.50
2017-05-10T08:22:15.415Z,2.88
2017-05-10T08:24:44.402Z,2.34
2017-05-10T08:27:13.644Z,2.52
2017-05-10T08:29:44.059Z,3.74
2017-05-10T08:32:13.010Z,3.04
2017-05-10T08:34:42.375Z,3.26
2017-05-10T08:37:12.083Z,3.62
2017-05-10T08:39:41.816Z,3.12
2017-05-10T08:42:11.204Z,3.22
2017-05-10T08:44:40.175Z,3.54
2017-05-10T08:47:09.859Z,3.98
2017-05-10T08:49:39.253Z,3.70
2017-05-10T08:52:08.206Z,3.64
2017-05-10T08:54:37.172Z,3.50
2017-05-10T08:57:07.161Z,3.32
2017-05-10T08:59:36.114Z,4.46
2017-05-10T09:02:05.062Z,3.96
2017-05-10T09:04:34.469Z,3.42
2017-05-10T09:07:03.407Z,2.88
2017-05-10T09:09:32.411Z,4.04
2017-05-10T09:12:01.652Z,2.42
2017-05-10T09:14:31.346Z,1.96
2017-05-10T09:17:00.306Z,3.02
2017-05-10T09:19:29.759Z,2.46
2017-05-10T09:21:58.775Z,2.06
2017-05-10T09:24:27.723Z,1.70
2017-05-10T09:26:57.233Z,2.52
2017-05-10T09:29:26.468Z,1.98
2017-05-10T09:31:55.406Z,2.98
2017-05-10T09:34:24.707Z,2.86
2017-05-10T09:36:53.659Z,2.76
2017-05-10T09:39:22.649Z,1.46
2017-05-10T09:41:52.016Z,1.28
2017-05-10T09:44:21.774Z,1.36
2017-05-10T09:46:50.747Z,2.28
2017-05-10T09:49:19.984Z,1.14
2017-05-10T09:51:48.936Z,1.30
2017-05-10T09:54:17.908Z,1.22
2017-05-10T09:56:47.205Z,1.22
2017-05-10T09:59:17.071Z,0.64
2017-05-10T10:01:46.045Z,1.00
2017-05-10T10:04:15.347Z,0.90
2017-05-10T10:06:44.300Z,0.90
2017-05-10T10:09:13.271Z,0.90
2017-05-10T10:11:42.575Z,1.28
2017-05-10T10:14:12.269Z,0.94
2017-05-10T10:16:41.274Z,1.10
2017-05-10T10:19:10.579Z,1.48
2017-05-10T10:21:39.510Z,1.94
2017-05-10T10:24:08.464Z,2.30
2017-05-10T10:26:38.510Z,3.12
2017-05-10T10:29:07.610Z,3.38
2017-05-10T10:31:36.578Z,2.08
2017-05-10T10:34:06.601Z,1.92
2017-05-10T10:36:35.560Z,1.74
2017-05-10T10:39:04.554Z,2.20
2017-05-10T10:41:33.858Z,1.30
2017-05-10T10:44:03.584Z,1.24
2017-05-10T10:46:33.691Z,1.20
2017-05-10T10:49:03.472Z,1.10
2017-05-10T10:51:32.441Z,1.28
2017-05-10T10:54:01.735Z,1.60
2017-05-10T10:56:30.711Z,1.40
2017-05-10T10:58:59.695Z,1.74
2017-05-10T11:01:29.025Z,1.60
2017-05-10T11:03:57.978Z,1.90
2017-05-10T11:06:27.695Z,2.06
2017-05-10T11:08:57.241Z,1.42
2017-05-10T11:11:26.208Z,1.74
2017-05-10T11:13:55.131Z,1.74
2017-05-10T11:16:24.542Z,1.40
2017-05-10T11:18:53.528Z,2.20
2017-05-10T11:21:22.511Z,1.70
2017-05-10T11:23:51.843Z,1.76
2017-05-10T11:26:21.523Z,3.20
2017-05-10T11:28:50.622Z,1.36
2017-05-10T11:31:19.921Z,1.84
2017-05-10T11:33:48.901Z,2.46
2017-05-10T11:36:17.837Z,1.30
2017-05-10T11:38:47.949Z,1.70
2017-05-10T11:41:17.724Z,1.54
2017-05-10T11:43:46.704Z,1.54
2017-05-10T11:46:16.049Z,0.96
2017-05-10T11:48:45.798Z,1.34
2017-05-10T11:51:14.781Z,0.82
2017-05-10T11:53:44.167Z,1.04
2017-05-10T11:56:13.112Z,0.90
2017-05-10T11:58:42.144Z,1.12
2017-05-10T12:01:12.159Z,1.58
2017-05-10T12:03:56.653Z,1.00
2017-05-10T12:06:26.216Z,0.60
2017-05-10T12:08:56.053Z,0.94
2017-05-10T12:11:25.067Z,0.58
2017-05-10T12:13:54.528Z,1.06
2017-05-10T12:16:24.285Z,1.10
2017-05-10T12:18:53.294Z,1.18
2017-05-10T12:21:22.634Z,1.10
2017-05-10T12:24:16.074Z,1.02
2017-05-10T12:26:45.498Z,1.08
2017-05-10T12:29:15.311Z,1.30
2017-05-10T12:31:45.063Z,1.14
2017-05-10T12:34:15.139Z,1.30
2017-05-10T12:36:44.971Z,1.26
2017-05-10T12:39:13.996Z,1.10
2017-05-10T12:41:43.433Z,1.78
2017-05-10T12:44:12.442Z,1.88
2017-05-10T12:46:41.509Z,1.50
2017-05-10T12:49:10.924Z,1.36
2017-05-10T12:51:40.005Z,1.16
2017-05-10T12:54:09.729Z,1.16
2017-05-10T12:56:39.863Z,0.60
2017-05-10T12:59:08.868Z,1.08
2017-05-10T13:01:37.913Z,1.10
2017-05-10T13:04:07.283Z,0.78
2017-05-10T13:06:36.328Z,1.06
2017-05-10T13:09:06.077Z,0.86
2017-05-10T13:11:35.476Z,1.00
2017-05-10T13:14:04.502Z,1.02
2017-05-10T13:16:33.508Z,0.86
2017-05-10T13:19:02.931Z,1.08
2017-05-10T13:21:32.810Z,0.94
2017-05-10T13:24:01.803Z,1.48
2017-05-10T13:26:31.245Z,1.18
2017-05-10T13:29:00.980Z,1.36
2017-05-10T13:31:29.950Z,1.18
2017-05-10T13:33:59.214Z,1.00
2017-05-10T13:36:28.208Z,1.10
2017-05-10T13:38:57.189Z,0.60
2017-05-10T13:41:26.638Z,1.10
2017-05-10T13:43:55.617Z,0.62
2017-05-10T13:46:25.392Z,0.70
2017-05-10T13:48:54.745Z,1.04
2017-05-10T13:51:23.835Z,1.50
2017-05-10T13:53:52.796Z,1.90
2017-05-10T13:56:22.130Z,1.40
2017-05-10T13:58:51.171Z,2.00
2017-05-10T14:01:20.977Z,2.06
2017-05-10T14:03:50.313Z,1.74
2017-05-10T14:06:20.013Z,1.64
2017-05-10T14:08:49.042Z,1.80
2017-05-10T14:11:18.409Z,1.58
2017-05-10T14:13:47.396Z,1.40
2017-05-10T14:16:16.412Z,2.08
2017-05-10T14:18:45.803Z,1.80
2017-05-10T14:21:15.521Z,1.92
2017-05-10T14:23:45.715Z,2.04
2017-05-10T14:26:14.781Z,1.40
2017-05-10T14:28:43.754Z,1.80
2017-05-10T14:31:13.007Z,1.98
2017-05-10T14:33:41.985Z,1.30
2017-05-10T14:36:10.948Z,1.34
2017-05-10T14:38:40.300Z,1.82
2017-05-10T14:41:10.150Z,1.52
2017-05-10T14:43:39.130Z,1.58
2017-05-10T14:46:08.406Z,2.32
2017-05-10T14:48:38.134Z,1.46
2017-05-10T14:51:07.103Z,2.20
2017-05-10T14:53:37.144Z,1.62
2017-05-10T14:56:06.120Z,1.58
2017-05-10T14:58:35.117Z,1.86
2017-05-10T15:01:04.509Z,1.74
2017-05-10T15:03:34.214Z,1.50
2017-05-10T15:06:03.987Z,1.24
2017-05-10T15:08:33.308Z,1.72
2017-05-10T15:11:02.358Z,1.82
2017-05-10T15:13:31.334Z,1.96
2017-05-10T15:16:01.273Z,1.80
2017-05-10T15:18:30.212Z,1.94
2017-05-10T15:20:59.965Z,1.66
2017-05-10T15:23:29.320Z,1.76
2017-05-10T15:25:59.054Z,1.56
2017-05-10T15:28:28.053Z,1.34
2017-05-10T15:30:57.487Z,2.10
2017-05-10T15:33:27.251Z,2.02
2017-05-10T15:35:56.213Z,2.36
2017-05-10T15:38:25.567Z,1.78
2017-05-10T15:40:54.576Z,2.14
2017-05-10T15:43:23.578Z,1.90
2017-05-10T15:45:53.024Z,2.30
2017-05-10T15:48:22.014Z,1.64
2017-05-10T15:50:51.710Z,2.58
2017-05-10T15:53:21.255Z,2.60
2017-05-10T15:55:50.259Z,2.62
2017-05-10T15:58:19.258Z,1.92
2017-05-10T16:00:48.637Z,2.28
2017-05-10T16:03:17.632Z,1.84
2017-05-10T16:05:46.595Z,2.24
2017-05-10T16:08:16.704Z,2.68
2017-05-10T16:10:46.440Z,2.02
2017-05-10T16:13:15.429Z,2.58
2017-05-10T16:15:44.813Z,2.48
2017-05-10T16:18:14.522Z,2.96
2017-05-10T16:20:43.546Z,2.06
2017-05-10T16:23:12.904Z,2.32
2017-05-10T16:25:41.848Z,1.98
2017-05-10T16:28:10.846Z,2.20
2017-05-10T16:30:40.295Z,1.92
2017-05-10T16:33:09.278Z,2.72
2017-05-10T16:35:38.347Z,3.06
2017-05-10T16:38:07.655Z,2.52
2017-05-10T16:40:36.739Z,2.04
2017-05-10T16:43:05.820Z,2.54
2017-05-10T16:45:35.278Z,2.16
2017-05-10T16:48:04.271Z,2.62
2017-05-10T16:50:33.987Z,3.52
2017-05-10T16:53:04.191Z,2.68
2017-05-10T16:55:33.168Z,2.92
2017-05-10T16:58:02.209Z,3.30
2017-05-10T17:00:31.680Z,2.58
2017-05-10T17:03:00.633Z,2.50
2017-05-10T17:05:29.666Z,2.94
2017-05-10T17:07:59.016Z,2.36
2017-05-10T17:10:28.267Z,3.18
2017-05-10T17:12:57.247Z,2.50
2017-05-10T17:15:26.657Z,2.88
2017-05-10T17:17:56.380Z,3.30
2017-05-10T17:20:25.381Z,3.04
2017-05-10T17:22:54.778Z,2.40
2017-05-10T17:25:24.159Z,2.62
2017-05-10T17:27:53.107Z,3.64
2017-05-10T17:30:23.288Z,2.92
2017-05-10T17:32:53.000Z,2.64
2017-05-10T17:35:22.138Z,3.56
2017-05-10T17:37:51.699Z,3.68
2017-05-10T17:40:20.709Z,3.02
2017-05-10T17:42:49.717Z,3.38
2017-05-10T17:45:19.026Z,3.68
2017-05-10T17:47:48.112Z,2.98
2017-05-10T17:50:17.233Z,3.30
2017-05-10T17:52:46.531Z,3.08
2017-05-10T17:55:16.247Z,3.42
2017-05-10T17:57:45.313Z,2.76
2017-05-10T18:00:14.676Z,2.88
2017-05-10T18:02:43.767Z,3.62
2017-05-10T18:05:12.800Z,2.28
2017-05-10T18:07:42.198Z,2.70
2017-05-10T18:10:11.219Z,2.74
2017-05-10T18:12:40.212Z,3.00
2017-05-10T18:15:09.582Z,2.86
2017-05-10T18:17:38.609Z,2.90
2017-05-10T18:20:07.585Z,3.54
2017-05-10T18:22:36.926Z,3.22
2017-05-10T18:25:06.639Z,3.54
2017-05-10T18:27:35.598Z,3.04
2017-05-10T18:30:05.108Z,3.44
2017-05-10T18:32:34.948Z,3.62
2017-05-10T18:35:03.966Z,3.16
2017-05-10T18:37:33.458Z,3.64
2017-05-10T18:40:02.474Z,2.76
2017-05-10T18:42:31.474Z,3.14
2017-05-10T18:45:00.851Z,3.56
2017-05-10T18:47:29.880Z,3.40
2017-05-10T18:49:58.875Z,3.60
2017-05-10T18:52:28.372Z,3.76
2017-05-10T18:54:57.456Z,3.24
2017-05-10T18:57:27.138Z,3.42
2017-05-10T18:59:56.582Z,3.70
2017-05-10T19:02:25.684Z,3.94
2017-05-10T19:04:54.786Z,4.66
2017-05-10T19:07:24.221Z,4.00
2017-05-10T19:09:53.345Z,4.24
2017-05-10T19:12:22.432Z,3.70
2017-05-10T19:14:51.954Z,4.10
2017-05-10T19:17:21.090Z,3.74
2017-05-10T19:19:50.179Z,4.82
2017-05-10T19:22:19.597Z,4.12
2017-05-10T19:24:48.665Z,4.22
2017-05-10T19:27:17.721Z,4.10
2017-05-10T19:29:47.182Z,4.32
2017-05-10T19:32:16.258Z,4.10
2017-05-10T19:34:46.113Z,4.60
2017-05-10T19:37:15.542Z,4.40
2017-05-10T19:39:44.645Z,4.08
2017-05-10T19:42:13.724Z,3.84
2017-05-10T19:44:43.136Z,5.68
2017-05-10T19:47:12.176Z,3.86
2017-05-10T19:49:41.963Z,5.44
2017-05-10T19:52:11.524Z,4.92
2017-05-10T19:54:41.220Z,4.70
2017-05-10T19:57:10.262Z,4.82
2017-05-10T19:59:39.759Z,6.86
2017-05-10T20:02:08.853Z,4.14
2017-05-10T20:04:37.894Z,4.38
2017-05-10T20:07:07.334Z,4.58
2017-05-10T20:09:36.357Z,5.72
2017-05-10T20:12:05.350Z,7.22
2017-05-10T20:14:34.715Z,5.70
2017-05-10T20:17:03.723Z,5.18
2017-05-10T20:19:32.786Z,6.44
2017-05-10T20:22:02.273Z,6.04
2017-05-10T20:24:31.416Z,6.00
2017-05-10T20:27:00.432Z,5.02
2017-05-10T20:29:29.874Z,5.90
2017-05-10T20:31:58.924Z,5.46
2017-05-10T20:34:27.894Z,5.22
2017-05-10T20:36:57.195Z,5.70
2017-05-10T20:39:26.245Z,5.64
2017-05-10T20:41:55.226Z,4.80
2017-05-10T20:44:24.176Z,5.92
2017-05-10T20:46:53.208Z,6.02
2017-05-10T20:49:22.620Z,6.78
2017-05-10T20:51:51.674Z,6.08
2017-05-10T20:54:20.738Z,5.36
2017-05-10T20:56:49.731Z,6.26
2017-05-10T20:59:18.684Z,6.36
2017-05-10T21:01:48.441Z,5.64
2017-05-10T21:04:17.455Z,5.70
2017-05-10T21:06:46.892Z,6.84
2017-05-10T21:09:15.865Z,6.04
2017-05-10T21:11:45.615Z,5.86
2017-05-10T21:14:15.188Z,7.46
2017-05-10T21:16:44.927Z,6.78
2017-05-10T21:19:13.903Z,5.94
2017-05-10T21:21:43.360Z,6.26
2017-05-10T21:24:12.359Z,7.42
2017-05-10T21:26:41.327Z,6.78
2017-05-10T21:29:10.658Z,8.60
2017-05-10T21:31:39.624Z,6.62
2017-05-10T21:34:08.768Z,6.28
2017-05-10T21:36:38.920Z,6.46
2017-05-10T21:39:07.866Z,6.62
2017-05-10T21:41:37.592Z,6.70
2017-05-10T21:44:07.007Z,7.08
2017-05-10T21:46:35.959Z,7.48
2017-05-10T21:49:04.904Z,7.22
2017-05-10T21:51:34.209Z,7.62
2017-05-10T21:54:03.175Z,8.40
2017-05-10T21:56:32.124Z,7.76
2017-05-10T21:59:01.134Z,8.42
2017-05-10T22:01:30.851Z,7.60
2017-05-10T22:04:00.566Z,8.80
2017-05-10T22:06:29.581Z,7.74
2017-05-10T22:08:58.933Z,8.02
2017-05-10T22:11:27.871Z,7.92
2017-05-10T22:13:56.863Z,8.24
2017-05-10T22:16:26.223Z,8.28
2017-05-10T22:18:55.355Z,8.82
2017-05-10T22:21:24.307Z,7.82
2017-05-10T22:23:53.636Z,8.22
2017-05-10T22:26:22.611Z,8.56
2017-05-10T22:28:51.587Z,7.48
2017-05-10T22:31:21.159Z,8.54
2017-05-10T22:33:50.229Z,8.38
2017-05-10T22:36:19.183Z,9.86
2017-05-10T22:38:48.621Z,8.74
2017-05-10T22:41:17.570Z,8.66
2017-05-10T22:43:46.668Z,9.08
2017-05-10T22:46:15.990Z,9.40
2017-05-10T22:48:44.995Z,10.06
2017-05-10T22:51:13.981Z,9.56
2017-05-10T22:53:43.380Z,9.18
2017-05-10T22:56:12.373Z,9.02
2017-05-10T22:58:41.323Z,9.28
2017-05-10T23:01:10.618Z,8.98
2017-05-10T23:03:39.675Z,8.66
2017-05-10T23:06:08.688Z,9.10
2017-05-10T23:08:38.200Z,9.40
2017-05-10T23:11:07.158Z,8.00
2017-05-10T23:13:36.106Z,8.66
2017-05-10T23:16:05.390Z,8.98
2017-05-10T23:18:34.395Z,10.14
2017-05-10T23:21:03.331Z,9.18
2017-05-10T23:23:32.571Z,9.92
2017-05-10T23:26:01.521Z,8.82
2017-05-10T23:28:30.557Z,9.94
2017-05-10T23:30:59.885Z,10.08
2017-05-10T23:33:29.647Z,10.42
2017-05-10T23:35:58.602Z,9.54
2017-05-10T23:38:27.612Z,9.38
2017-05-10T23:40:56.615Z,9.96
2017-05-10T23:43:25.638Z,9.58
2017-05-10T23:45:54.652Z,9.50
2017-05-10T23:48:23.586Z,9.02
2017-05-10T23:50:52.583Z,10.44
2017-05-10T23:53:21.633Z,10.50
2017-05-10T23:55:50.596Z,9.88
2017-05-10T23:58:19.591Z,10.98
